»·PEaware :: DCM424 KSAN-KOXR

DCM424 :: KSAN-KOXR

FLIGHT INFORMATION

Flight Status: Arrived
Operator: DotCom
More flights by this operator :: More flights under this callsign
Pilot: Ben H. (9170)
Aircraft: BEECH AIRCRAFT A90-E90 KING AIR
(BE9L)
More flights by this aircraft type
Origin: KSAN San Diego Intl-Lindbergh
United States
Destination: KOXR Oxnard
United States
More flights between these airports :: More routes between these airports
Route: +PEBLE6 SXC V208 VTU
File this flight plan on PilotEdge
Remarks:
Altitude:
(Current/Filed)
8,000ft
Speed:
(Current/Filed)
220kts
Departed: 27-Jan-19 07:35 PM
Arrived: 27-Jan-19 08:25 PM
Distance/Time
Traveled:
134nm/0:49
Distance/Time
To Go:
Arrived

Flight Plot

Page will automatically refresh every two minutes.


Map Options




Map Legend


Flown Route
Filed Route
Departure Airport
Arrival Airport
Navaid (VOR, NDB)
Fix

Horizontal Profiles

Position Reports

Time Latitude Longitude Heading Altitude Ground
Speed
27-Jan-19 19:23 32.732395 -117.177886 194 18ft 0kts
27-Jan-19 19:24 32.732395 -117.177886 193 18ft 0kts
27-Jan-19 19:25 32.732394 -117.177886 193 18ft 0kts
27-Jan-19 19:26 32.732394 -117.177886 193 18ft 0kts
27-Jan-19 19:27 32.732394 -117.177886 193 18ft 0kts
27-Jan-19 19:28 32.732394 -117.177886 193 18ft 0kts
27-Jan-19 19:29 32.732394 -117.177886 193 18ft 0kts
27-Jan-19 19:30 32.731512 -117.176785 131 18ft 8kts
27-Jan-19 19:31 32.731475 -117.176740 137 18ft 0kts
27-Jan-19 19:32 32.731349 -117.176626 154 18ft 3kts
27-Jan-19 19:33 32.730853 -117.176727 201 18ft 10kts
27-Jan-19 19:34 32.738250 -117.204689 303 749ft 136kts
27-Jan-19 19:35 32.777330 -117.206478 351 2170ft 164kts
27-Jan-19 19:36 32.809134 -117.244086 306 3572ft 167kts
27-Jan-19 19:37 32.836411 -117.289407 306 4921ft 170kts
27-Jan-19 19:38 32.863063 -117.332049 306 5978ft 173kts
27-Jan-19 19:39 32.892245 -117.378411 307 7061ft 176kts
27-Jan-19 19:40 32.922403 -117.426497 306 7884ft 198kts
27-Jan-19 19:41 32.958046 -117.483315 307 7882ft 222kts
27-Jan-19 19:42 32.995438 -117.543046 307 7880ft 225kts
27-Jan-19 19:43 33.032764 -117.602759 307 7881ft 225kts
27-Jan-19 19:44 33.070102 -117.662661 306 7881ft 224kts
27-Jan-19 19:45 33.104016 -117.716456 307 7881ft 224kts
27-Jan-19 19:46 33.137679 -117.767893 307 7898ft 224kts
27-Jan-19 19:47 33.174240 -117.824133 307 7908ft 224kts
27-Jan-19 19:48 33.200290 -117.890641 291 7908ft 224kts
27-Jan-19 19:49 33.223359 -117.960088 291 7908ft 224kts
27-Jan-19 19:50 33.246446 -118.029596 291 7908ft 225kts
27-Jan-19 19:51 33.269473 -118.099063 291 7908ft 225kts
27-Jan-19 19:52 33.289634 -118.160011 291 7908ft 225kts
27-Jan-19 19:53 33.310940 -118.224544 291 7908ft 225kts
27-Jan-19 19:54 33.333524 -118.293085 292 7994ft 215kts
27-Jan-19 19:55 33.355381 -118.359586 292 7999ft 213kts
27-Jan-19 19:56 33.378932 -118.424440 304 7999ft 213kts
27-Jan-19 19:57 33.416582 -118.479168 310 7999ft 213kts
27-Jan-19 19:58 33.454994 -118.533354 309 7998ft 213kts
27-Jan-19 19:59 33.493193 -118.587762 309 7998ft 213kts
27-Jan-19 20:01 33.531166 -118.641988 309 7998ft 213kts
27-Jan-19 20:02 33.568370 -118.695203 309 8000ft 213kts
27-Jan-19 20:03 33.606585 -118.749944 309 7999ft 213kts
27-Jan-19 20:04 33.644730 -118.804662 309 7991ft 213kts
27-Jan-19 20:05 33.682563 -118.859018 309 8007ft 214kts
27-Jan-19 20:06 33.720749 -118.913960 309 8000ft 215kts
27-Jan-19 20:07 33.759239 -118.969550 309 7997ft 215kts
27-Jan-19 20:08 33.803725 -119.015993 344 7998ft 217kts
27-Jan-19 20:09 33.863373 -119.023154 353 7625ft 211kts
27-Jan-19 20:10 33.921445 -119.029071 353 6733ft 210kts
27-Jan-19 20:11 33.977283 -119.020262 31 5731ft 213kts
27-Jan-19 20:12 34.026155 -118.980202 32 5001ft 210kts
27-Jan-19 20:13 34.074302 -118.940667 32 4995ft 209kts
27-Jan-19 20:14 34.119919 -118.903404 32 4992ft 190kts
27-Jan-19 20:15 34.163484 -118.869520 12 4047ft 181kts
27-Jan-19 20:15 34.189425 -118.896508 297 3725ft 154kts
27-Jan-19 20:17 34.198733 -118.951859 271 3771ft 142kts
27-Jan-19 20:18 34.199243 -118.993876 269 3398ft 115kts
27-Jan-19 20:19 34.199565 -119.031849 269 2791ft 109kts
27-Jan-19 20:19 34.199802 -119.062082 269 2304ft 107kts
27-Jan-19 20:21 34.200125 -119.104207 269 1618ft 105kts
27-Jan-19 20:22 34.200391 -119.136845 269 1085ft 81kts
27-Jan-19 20:22 34.200506 -119.159308 268 723ft 86kts
27-Jan-19 20:23 34.200700 -119.187710 269 312ft 82kts
27-Jan-19 20:24 34.200578 -119.207425 172 38ft 12kts
27-Jan-19 20:25 34.200017 -119.207160 180 38ft 0kts
27-Jan-19 20:26 34.199064 -119.206692 63 38ft 0kts
27-Jan-19 20:27 34.199064 -119.206692 63 38ft 0kts
27-Jan-19 20:28 34.199064 -119.206692 63 38ft 0kts
27-Jan-19 20:29 34.199064 -119.206692 63 38ft 0kts
27-Jan-19 20:30 34.199064 -119.206692 63 38ft 0kts

Navigation Log

Ident Type
Flight plan parsing failed, navigation log unavailable